createdAt,value
2017-11-26T00:01:32.995Z,2.10
2017-11-26T00:04:00.992Z,2.20
2017-11-26T00:06:29.610Z,2.20
2017-11-26T00:08:58.034Z,2.20
2017-11-26T00:11:27.299Z,2.20
2017-11-26T00:13:56.104Z,2.20
2017-11-26T00:16:24.724Z,2.20
2017-11-26T00:18:53.045Z,2.20
2017-11-26T00:21:20.751Z,2.20
2017-11-26T00:23:48.720Z,2.20
2017-11-26T00:26:16.539Z,2.20
2017-11-26T00:28:44.397Z,2.20
2017-11-26T00:31:12.085Z,2.20
2017-11-26T00:33:40.016Z,2.20
2017-11-26T00:36:08.109Z,2.10
2017-11-26T00:38:36.148Z,2.10
2017-11-26T00:41:03.938Z,2.10
2017-11-26T00:43:31.945Z,2.10
2017-11-26T00:45:59.773Z,2.00
2017-11-26T00:48:28.189Z,1.90
2017-11-26T00:50:56.351Z,1.90
2017-11-26T00:53:24.027Z,1.80
2017-11-26T00:55:52.445Z,1.80
2017-11-26T00:58:20.256Z,1.80
2017-11-26T01:00:49.016Z,1.70
2017-11-26T01:03:17.010Z,1.80
2017-11-26T01:05:45.519Z,1.80
2017-11-26T01:08:13.946Z,1.80
2017-11-26T01:10:41.616Z,1.90
2017-11-26T01:13:10.745Z,1.90
2017-11-26T01:15:39.715Z,1.90
2017-11-26T01:18:09.120Z,1.90
2017-11-26T01:20:38.317Z,1.90
2017-11-26T01:23:06.925Z,1.90
2017-11-26T01:25:35.082Z,2.00
2017-11-26T01:28:02.986Z,2.00
2017-11-26T01:30:30.964Z,2.00
2017-11-26T01:33:00.360Z,2.00
2017-11-26T01:35:28.351Z,2.00
2017-11-26T01:37:56.699Z,2.00
2017-11-26T01:40:25.071Z,2.10
2017-11-26T01:42:53.269Z,2.10
2017-11-26T01:45:21.565Z,2.10
2017-11-26T01:47:50.007Z,2.10
2017-11-26T01:50:18.366Z,2.10
2017-11-26T01:52:47.744Z,2.10
2017-11-26T01:55:16.122Z,2.10
2017-11-26T01:57:43.737Z,2.10
2017-11-26T02:00:12.483Z,2.00
2017-11-26T02:02:40.782Z,2.00
2017-11-26T02:05:11.220Z,2.00
2017-11-26T02:07:39.349Z,2.00
2017-11-26T02:10:08.852Z,2.00
2017-11-26T02:12:37.598Z,2.00
2017-11-26T02:15:10.696Z,2.00
2017-11-26T02:17:38.538Z,2.00
2017-11-26T02:20:06.578Z,2.00
2017-11-26T02:22:34.730Z,2.00
2017-11-26T02:25:02.680Z,2.00
2017-11-26T02:27:30.472Z,2.00
2017-11-26T02:29:59.040Z,2.00
2017-11-26T02:32:39.993Z,2.00
2017-11-26T02:35:19.365Z,2.00
2017-11-26T02:37:47.716Z,2.00
2017-11-26T02:40:15.398Z,1.90
2017-11-26T02:42:43.359Z,1.90
2017-11-26T02:45:12.605Z,1.90
2017-11-26T02:47:42.121Z,1.90
2017-11-26T02:50:10.564Z,1.80
2017-11-26T02:52:39.629Z,1.80
2017-11-26T02:55:08.145Z,1.80
2017-11-26T02:57:37.102Z,1.80
2017-11-26T03:00:05.085Z,1.80
2017-11-26T03:02:34.692Z,1.70
2017-11-26T03:05:04.968Z,1.70
2017-11-26T03:07:33.081Z,1.70
2017-11-26T03:10:02.404Z,1.70
2017-11-26T03:12:29.971Z,1.70
2017-11-26T03:14:57.584Z,1.70
2017-11-26T03:17:25.944Z,1.70
2017-11-26T03:19:57.129Z,1.70
2017-11-26T03:22:27.456Z,1.60
2017-11-26T03:24:59.116Z,1.60
2017-11-26T03:27:28.205Z,1.60
2017-11-26T03:29:58.176Z,1.60
2017-11-26T03:32:25.745Z,1.60
2017-11-26T03:34:54.469Z,1.50
2017-11-26T03:37:23.488Z,1.50
2017-11-26T03:39:53.647Z,1.50
2017-11-26T03:42:21.235Z,1.50
2017-11-26T03:44:48.849Z,1.60
2017-11-26T03:47:19.292Z,1.60
2017-11-26T03:49:46.882Z,1.60
2017-11-26T03:52:15.440Z,1.60
2017-11-26T03:54:44.404Z,1.70
2017-11-26T03:57:17.351Z,1.70
2017-11-26T03:59:50.632Z,1.70
2017-11-26T04:02:18.191Z,1.70
2017-11-26T04:04:49.298Z,1.70
2017-11-26T04:07:16.904Z,1.70
2017-11-26T04:09:44.474Z,1.70
2017-11-26T04:12:12.917Z,1.70
2017-11-26T04:14:48.596Z,1.80
2017-11-26T04:17:18.727Z,1.80
2017-11-26T04:19:49.245Z,1.80
2017-11-26T04:22:19.032Z,1.80
2017-11-26T04:24:49.400Z,1.80
2017-11-26T04:27:24.437Z,1.90
2017-11-26T04:29:53.648Z,1.90
2017-11-26T04:32:22.892Z,1.90
2017-11-26T04:34:51.191Z,1.90
2017-11-26T04:37:18.780Z,1.90
2017-11-26T04:39:47.647Z,1.90
2017-11-26T04:42:16.140Z,1.90
2017-11-26T04:44:43.700Z,1.90
2017-11-26T04:47:11.308Z,1.90
2017-11-26T04:49:38.908Z,1.90
2017-11-26T04:52:07.413Z,2.00
2017-11-26T04:54:38.252Z,1.90
2017-11-26T04:57:08.142Z,1.90
2017-11-26T04:59:37.038Z,1.80
2017-11-26T05:02:04.668Z,1.80
2017-11-26T05:04:34.523Z,1.80
2017-11-26T05:07:03.009Z,1.80
2017-11-26T05:09:33.148Z,1.80
2017-11-26T05:12:02.111Z,1.80
2017-11-26T05:14:29.764Z,1.80
2017-11-26T05:17:02.068Z,1.80
2017-11-26T05:19:30.462Z,1.80
2017-11-26T05:21:58.820Z,1.80
2017-11-26T05:24:27.075Z,1.80
2017-11-26T05:26:55.625Z,1.80
2017-11-26T05:29:23.993Z,1.80
2017-11-26T05:31:53.586Z,1.80
2017-11-26T05:34:22.313Z,1.70
2017-11-26T05:36:50.024Z,1.70
2017-11-26T05:39:18.384Z,1.60
2017-11-26T05:41:47.048Z,1.60
2017-11-26T05:44:18.613Z,1.50
2017-11-26T05:46:48.310Z,1.50
2017-11-26T05:49:17.974Z,1.50
2017-11-26T05:51:46.632Z,1.50
2017-11-26T05:54:14.265Z,1.40
2017-11-26T05:56:42.797Z,1.40
2017-11-26T05:59:10.417Z,1.40
2017-11-26T06:01:38.040Z,1.40
2017-11-26T06:04:06.492Z,1.40
2017-11-26T06:06:35.674Z,1.50
2017-11-26T06:09:03.297Z,1.50
2017-11-26T06:11:30.966Z,1.50
2017-11-26T06:14:02.605Z,1.50
2017-11-26T06:16:30.205Z,1.50
2017-11-26T06:18:57.776Z,1.60
2017-11-26T06:21:26.459Z,1.50
2017-11-26T06:23:54.944Z,1.50
2017-11-26T06:26:22.592Z,1.50
2017-11-26T06:28:50.173Z,1.50
2017-11-26T06:31:20.703Z,1.50
2017-11-26T06:33:49.359Z,1.40
2017-11-26T06:36:18.586Z,1.40
2017-11-26T06:38:49.741Z,1.40
2017-11-26T06:41:20.120Z,1.40
2017-11-26T06:43:49.051Z,1.50
2017-11-26T06:46:17.251Z,1.40
2017-11-26T06:48:44.984Z,1.50
2017-11-26T06:51:13.737Z,1.40
2017-11-26T06:53:42.351Z,1.40
2017-11-26T06:56:10.174Z,1.40
2017-11-26T06:58:38.577Z,1.30
2017-11-26T07:01:06.138Z,1.40
2017-11-26T07:03:34.534Z,1.30
2017-11-26T07:06:03.734Z,1.30
2017-11-26T07:08:31.928Z,1.30
2017-11-26T07:11:07.794Z,1.30
2017-11-26T07:13:35.396Z,1.30
2017-11-26T07:16:04.002Z,1.30
2017-11-26T07:18:31.720Z,1.30
2017-11-26T07:21:00.379Z,1.30
2017-11-26T07:23:29.232Z,1.30
2017-11-26T07:25:56.855Z,1.40
2017-11-26T07:28:24.466Z,1.40
2017-11-26T07:30:52.069Z,1.40
2017-11-26T07:33:25.760Z,1.40
2017-11-26T07:35:54.746Z,1.50
2017-11-26T07:38:23.090Z,1.50
2017-11-26T07:40:52.999Z,1.40
2017-11-26T07:43:22.894Z,1.40
2017-11-26T07:45:53.464Z,1.40
2017-11-26T07:48:21.071Z,1.40
2017-11-26T07:50:48.708Z,1.40
2017-11-26T07:53:17.080Z,1.40
2017-11-26T07:55:49.332Z,1.40
2017-11-26T07:58:17.526Z,1.40
2017-11-26T08:00:45.133Z,1.50
2017-11-26T08:03:12.741Z,1.50
2017-11-26T08:05:40.436Z,1.50
2017-11-26T08:08:08.094Z,1.60
2017-11-26T08:10:36.444Z,1.60
2017-11-26T08:13:06.636Z,1.70
2017-11-26T08:15:35.628Z,1.80
2017-11-26T08:18:06.150Z,1.90
2017-11-26T08:20:36.632Z,2.00
2017-11-26T08:23:06.732Z,2.10
2017-11-26T08:25:34.333Z,2.10
2017-11-26T08:28:01.886Z,2.20
2017-11-26T08:30:33.347Z,2.20
2017-11-26T08:33:00.985Z,2.30
2017-11-26T08:35:29.313Z,2.40
2017-11-26T08:38:01.371Z,2.40
2017-11-26T08:40:33.031Z,2.40
2017-11-26T08:43:01.953Z,2.40
2017-11-26T08:45:31.129Z,2.50
2017-11-26T08:48:00.338Z,2.60
2017-11-26T08:50:31.500Z,2.60
2017-11-26T08:53:02.091Z,2.70
2017-11-26T08:55:33.403Z,2.70
2017-11-26T08:58:04.252Z,2.70
2017-11-26T09:00:35.076Z,2.70
2017-11-26T09:03:06.969Z,2.80
2017-11-26T09:05:39.315Z,2.80
2017-11-26T09:08:07.964Z,2.90
2017-11-26T09:10:35.536Z,2.90
2017-11-26T09:13:04.273Z,2.90
2017-11-26T09:15:35.716Z,2.90
2017-11-26T09:18:04.332Z,2.90
2017-11-26T09:20:34.289Z,2.90
2017-11-26T09:23:02.590Z,2.90
2017-11-26T09:25:35.576Z,2.80
2017-11-26T09:28:07.669Z,2.90
2017-11-26T09:30:39.443Z,3.00
2017-11-26T09:33:12.076Z,3.00
2017-11-26T09:35:42.496Z,3.00
2017-11-26T09:38:12.396Z,3.20
2017-11-26T09:40:40.008Z,3.40
2017-11-26T09:43:08.920Z,3.50
2017-11-26T09:45:42.421Z,3.60
2017-11-26T09:48:16.061Z,3.60
2017-11-26T09:50:47.065Z,3.50
2017-11-26T09:53:15.888Z,3.50
2017-11-26T09:55:45.140Z,3.50
2017-11-26T09:58:16.609Z,3.50
2017-11-26T10:00:54.093Z,3.50
2017-11-26T10:03:24.649Z,3.50
2017-11-26T10:05:53.039Z,3.50
2017-11-26T10:08:21.399Z,3.50
2017-11-26T10:10:50.644Z,3.50
2017-11-26T10:13:21.357Z,3.50
2017-11-26T10:15:54.074Z,3.50
2017-11-26T10:18:25.621Z,3.50
2017-11-26T10:21:00.861Z,3.60
2017-11-26T10:23:33.323Z,3.60
2017-11-26T10:26:06.523Z,3.60
2017-11-26T10:28:40.007Z,3.70
2017-11-26T10:31:09.659Z,3.70
2017-11-26T10:33:40.313Z,3.70
2017-11-26T10:36:10.769Z,3.80
2017-11-26T10:38:40.651Z,3.80
2017-11-26T10:41:11.041Z,3.80
2017-11-26T10:43:38.648Z,3.80
2017-11-26T10:46:07.025Z,3.80
2017-11-26T10:48:35.579Z,3.80
2017-11-26T10:53:51.276Z,3.90
2017-11-26T10:56:22.785Z,3.90
2017-11-26T10:58:58.392Z,3.90
2017-11-26T11:01:28.873Z,3.90
2017-11-26T11:04:00.725Z,4.00
2017-11-26T11:06:29.380Z,4.10
2017-11-26T11:08:59.995Z,4.00
2017-11-26T11:11:30.417Z,4.00
2017-11-26T11:16:33.372Z,4.00
2017-11-26T11:19:01.192Z,3.90
2017-11-26T11:21:31.643Z,3.90
2017-11-26T11:24:00.571Z,3.90
2017-11-26T11:26:28.887Z,3.90
2017-11-26T11:28:57.131Z,4.00
2017-11-26T11:31:24.749Z,3.90
2017-11-26T11:33:54.348Z,3.90
2017-11-26T11:36:22.685Z,3.90
2017-11-26T11:38:51.460Z,3.80
2017-11-26T11:41:22.657Z,3.90
2017-11-26T11:43:50.881Z,3.90
2017-11-26T11:46:18.772Z,3.80
2017-11-26T11:48:46.904Z,3.80
2017-11-26T11:51:17.647Z,3.80
2017-11-26T11:53:45.215Z,3.70
2017-11-26T11:56:14.313Z,3.60
2017-11-26T11:58:43.499Z,3.60
2017-11-26T12:01:12.145Z,3.60
2017-11-26T12:03:43.886Z,3.60
2017-11-26T12:08:08.670Z,3.60
2017-11-26T12:11:15.088Z,3.70
2017-11-26T12:13:45.297Z,3.70
2017-11-26T12:16:15.455Z,3.80
2017-11-26T12:18:46.196Z,3.80
2017-11-26T12:22:25.878Z,3.80
2017-11-26T12:24:55.668Z,3.80
2017-11-26T12:27:26.704Z,3.80
2017-11-26T12:29:54.846Z,3.80
2017-11-26T12:32:25.034Z,3.70
2017-11-26T12:34:53.158Z,3.70
2017-11-26T12:37:30.800Z,3.70
2017-11-26T12:39:58.966Z,3.70
2017-11-26T12:42:29.792Z,3.60
2017-11-26T12:45:01.350Z,3.60
2017-11-26T12:47:30.313Z,3.60
2017-11-26T12:50:01.337Z,3.60
2017-11-26T12:52:30.838Z,3.50
2017-11-26T12:55:01.480Z,3.50
2017-11-26T12:57:30.609Z,3.40
2017-11-26T13:00:00.029Z,3.40
2017-11-26T13:02:28.271Z,3.40
2017-11-26T13:04:57.198Z,3.30
2017-11-26T13:07:26.208Z,3.30
2017-11-26T13:15:13.188Z,3.30
2017-11-26T13:20:12.780Z,3.30
2017-11-26T13:22:41.116Z,3.40
2017-11-26T13:25:12.580Z,3.40
2017-11-26T13:27:40.693Z,3.40
2017-11-26T13:30:12.287Z,3.40
2017-11-26T13:32:40.773Z,3.50
2017-11-26T13:35:08.422Z,3.50
2017-11-26T13:37:38.820Z,3.60
2017-11-26T13:40:06.433Z,3.60
2017-11-26T13:42:34.025Z,3.60
2017-11-26T13:45:01.668Z,3.60
2017-11-26T13:47:30.040Z,3.60
2017-11-26T13:49:59.387Z,3.60
2017-11-26T13:52:27.068Z,3.60
2017-11-26T13:54:56.033Z,3.60
2017-11-26T13:57:23.692Z,3.60
2017-11-26T13:59:51.295Z,3.60
2017-11-26T14:02:20.621Z,3.60
2017-11-26T14:04:48.232Z,3.60
2017-11-26T14:07:15.904Z,3.60
2017-11-26T14:09:43.831Z,3.50
2017-11-26T14:12:11.612Z,3.50
2017-11-26T14:14:39.229Z,3.50
2017-11-26T14:17:06.849Z,3.50
2017-11-26T14:19:34.419Z,3.50
2017-11-26T14:22:02.058Z,3.50
2017-11-26T14:24:30.857Z,3.40
2017-11-26T14:29:33.960Z,3.40
2017-11-26T14:32:02.364Z,3.40
2017-11-26T14:34:30.793Z,3.30
2017-11-26T14:37:02.072Z,3.30
2017-11-26T14:39:29.685Z,3.30
2017-11-26T14:41:58.169Z,3.20
2017-11-26T14:46:57.845Z,3.10
2017-11-26T14:49:25.789Z,3.00
2017-11-26T14:51:55.055Z,3.00
2017-11-26T14:54:25.421Z,2.90
2017-11-26T14:56:54.077Z,2.90
2017-11-26T14:59:24.620Z,2.80
2017-11-26T15:01:55.793Z,2.80
2017-11-26T15:04:25.948Z,2.70
2017-11-26T15:06:54.144Z,2.70
2017-11-26T15:09:22.212Z,2.60
2017-11-26T15:11:50.149Z,2.60
2017-11-26T15:14:20.186Z,2.50
2017-11-26T15:16:47.988Z,2.50
2017-11-26T15:19:15.615Z,2.50
2017-11-26T15:24:25.944Z,2.40
2017-11-26T15:26:54.869Z,2.30
2017-11-26T15:29:22.743Z,2.30
2017-11-26T15:31:51.405Z,2.20
2017-11-26T15:34:19.757Z,2.20
2017-11-26T15:36:54.001Z,2.10
2017-11-26T15:39:22.657Z,2.10
2017-11-26T15:41:54.031Z,2.10
2017-11-26T15:44:22.928Z,2.10
2017-11-26T15:46:51.818Z,2.00
2017-11-26T15:49:19.898Z,2.00
2017-11-26T15:51:48.576Z,2.00
2017-11-26T15:54:18.952Z,1.90
2017-11-26T15:56:46.621Z,1.90
2017-11-26T15:59:16.284Z,1.90
2017-11-26T16:01:44.733Z,1.90
2017-11-26T16:04:14.517Z,1.90
2017-11-26T16:06:44.891Z,1.90
2017-11-26T16:09:15.475Z,1.90
2017-11-26T16:11:43.076Z,1.90
2017-11-26T16:14:14.302Z,1.90
2017-11-26T16:16:41.920Z,1.90
2017-11-26T16:19:10.604Z,2.00
2017-11-26T16:21:38.344Z,2.00
2017-11-26T16:24:05.966Z,2.00
2017-11-26T16:26:33.973Z,2.00
2017-11-26T16:29:01.956Z,2.00
2017-11-26T16:31:29.775Z,2.00
2017-11-26T16:33:57.429Z,2.00
2017-11-26T16:36:25.017Z,2.00
2017-11-26T16:38:52.729Z,1.90
2017-11-26T16:41:20.465Z,1.90
2017-11-26T16:43:48.788Z,1.90
2017-11-26T16:46:18.089Z,1.90
2017-11-26T16:48:48.203Z,1.90
2017-11-26T16:51:15.833Z,1.80
2017-11-26T16:53:44.869Z,1.80
2017-11-26T16:56:12.509Z,1.90
2017-11-26T16:58:41.320Z,1.90
2017-11-26T17:01:08.951Z,1.80
2017-11-26T17:03:40.869Z,1.90
2017-11-26T17:06:09.160Z,1.90
2017-11-26T17:08:37.508Z,1.90
2017-11-26T17:11:05.136Z,1.90
2017-11-26T17:13:38.157Z,1.90
2017-11-26T17:16:06.598Z,1.90
2017-11-26T17:18:35.074Z,1.90
2017-11-26T17:21:03.889Z,1.90
2017-11-26T17:26:06.314Z,1.90
2017-11-26T17:28:35.482Z,2.00
2017-11-26T17:33:37.933Z,2.00
2017-11-26T17:36:07.980Z,1.90
2017-11-26T17:38:36.683Z,2.00
2017-11-26T17:43:38.358Z,2.00
2017-11-26T17:46:05.953Z,2.10
2017-11-26T17:53:42.596Z,2.10
2017-11-26T17:56:14.478Z,2.10
2017-11-26T17:58:43.217Z,2.10
2017-11-26T18:01:11.588Z,2.10
2017-11-26T18:03:39.490Z,2.10
2017-11-26T18:08:39.128Z,2.10
2017-11-26T18:11:07.937Z,2.20
2017-11-26T18:13:37.394Z,2.20
2017-11-26T18:16:05.019Z,2.20
2017-11-26T18:18:32.592Z,2.20
2017-11-26T18:21:00.271Z,2.10
2017-11-26T18:23:27.885Z,2.20
2017-11-26T18:25:57.882Z,2.10
2017-11-26T18:28:26.960Z,2.10
2017-11-26T18:33:28.609Z,2.10
2017-11-26T18:35:57.999Z,2.10
2017-11-26T18:38:26.385Z,2.20
2017-11-26T18:40:54.069Z,2.10
2017-11-26T18:43:21.732Z,2.20
2017-11-26T18:45:50.090Z,2.20
2017-11-26T18:48:17.679Z,2.20
2017-11-26T18:50:47.405Z,2.20
2017-11-26T18:53:19.734Z,2.20
2017-11-26T18:55:49.620Z,2.20
2017-11-26T18:58:18.046Z,2.20
2017-11-26T19:00:45.987Z,2.20
2017-11-26T19:03:18.245Z,2.20
2017-11-26T19:05:46.598Z,2.20
2017-11-26T19:08:14.197Z,2.20
2017-11-26T19:10:41.836Z,2.20
2017-11-26T19:13:09.438Z,2.20
2017-11-26T19:15:38.570Z,2.30
2017-11-26T19:18:07.539Z,2.30
2017-11-26T19:20:35.969Z,2.30
2017-11-26T19:23:04.859Z,2.20
2017-11-26T19:25:36.087Z,2.30
2017-11-26T19:28:05.684Z,2.30
2017-11-26T19:30:37.296Z,2.30
2017-11-26T19:33:11.094Z,2.30
2017-11-26T19:35:42.911Z,2.30
2017-11-26T19:40:46.539Z,2.30
2017-11-26T19:50:52.305Z,2.30
2017-11-26T19:55:54.474Z,2.30
2017-11-26T19:58:28.183Z,2.30
2017-11-26T20:01:00.751Z,2.30
2017-11-26T20:06:04.500Z,2.40
2017-11-26T20:13:39.440Z,2.40
2017-11-26T20:18:41.113Z,2.40
2017-11-26T20:23:42.582Z,2.40
2017-11-26T20:26:14.681Z,2.40
2017-11-26T20:28:42.283Z,2.40
2017-11-26T20:31:13.817Z,2.40
2017-11-26T20:33:42.299Z,2.40
2017-11-26T20:36:11.208Z,2.40
2017-11-26T20:38:44.384Z,2.40
2017-11-26T20:41:13.806Z,2.40
2017-11-26T20:43:45.403Z,2.40
2017-11-26T20:46:15.946Z,2.50
2017-11-26T20:51:20.225Z,2.50
2017-11-26T20:53:48.853Z,2.50
2017-11-26T20:56:20.596Z,2.50
2017-11-26T20:58:48.211Z,2.50
2017-11-26T21:01:16.761Z,2.50
2017-11-26T21:03:49.120Z,2.50
2017-11-26T21:06:17.845Z,2.50
2017-11-26T21:08:46.696Z,2.50
2017-11-26T21:11:16.271Z,2.50
2017-11-26T21:13:43.874Z,2.50
2017-11-26T21:16:15.404Z,2.50
2017-11-26T21:18:43.913Z,2.50
2017-11-26T21:21:14.025Z,2.50
2017-11-26T21:23:42.459Z,2.50
2017-11-26T21:26:11.943Z,2.50
2017-11-26T21:31:21.278Z,2.50
2017-11-26T21:33:52.708Z,2.40
2017-11-26T21:36:21.654Z,2.40
2017-11-26T21:38:52.093Z,2.50
2017-11-26T21:41:19.690Z,2.40
2017-11-26T21:43:49.189Z,2.50
2017-11-26T21:46:20.129Z,2.40
2017-11-26T21:48:49.670Z,2.40
2017-11-26T21:51:19.830Z,2.40
2017-11-26T21:53:49.320Z,2.40
2017-11-26T21:56:17.745Z,2.40
2017-11-26T21:58:51.453Z,2.40
2017-11-26T22:01:19.786Z,2.40
2017-11-26T22:03:48.884Z,2.40
2017-11-26T22:06:16.442Z,2.40
2017-11-26T22:08:45.277Z,2.40
2017-11-26T22:11:12.869Z,2.40
2017-11-26T22:13:40.488Z,2.40
2017-11-26T22:16:09.018Z,2.40
2017-11-26T22:18:36.693Z,2.40
2017-11-26T22:21:04.298Z,2.40
2017-11-26T22:23:34.887Z,2.40
2017-11-26T22:26:03.619Z,2.40
2017-11-26T22:28:33.911Z,2.30
2017-11-26T22:31:02.058Z,2.30
2017-11-26T22:33:29.645Z,2.30
2017-11-26T22:35:58.554Z,2.30
2017-11-26T22:38:27.137Z,2.30
2017-11-26T22:40:55.696Z,2.30
2017-11-26T22:43:23.284Z,2.30
2017-11-26T22:45:52.019Z,2.30
2017-11-26T22:48:20.114Z,2.30
2017-11-26T22:50:49.119Z,2.30
2017-11-26T22:53:17.950Z,2.30
2017-11-26T22:55:45.564Z,2.30
2017-11-26T22:58:14.383Z,2.30
2017-11-26T23:00:41.982Z,2.30
2017-11-26T23:03:11.880Z,2.30
2017-11-26T23:05:40.779Z,2.30
2017-11-26T23:08:09.335Z,2.30
2017-11-26T23:10:38.153Z,2.30
2017-11-26T23:13:05.743Z,2.30
2017-11-26T23:15:33.355Z,2.30
2017-11-26T23:18:03.205Z,2.30
2017-11-26T23:20:33.246Z,2.30
2017-11-26T23:23:00.856Z,2.30
2017-11-26T23:25:28.457Z,2.30
2017-11-26T23:27:56.858Z,2.30
2017-11-26T23:30:24.408Z,2.30
2017-11-26T23:32:51.997Z,2.30
2017-11-26T23:35:22.019Z,2.30
2017-11-26T23:37:50.389Z,2.30
2017-11-26T23:40:18.849Z,2.30
2017-11-26T23:42:48.182Z,2.30
2017-11-26T23:45:16.736Z,2.30
2017-11-26T23:47:44.287Z,2.40
2017-11-26T23:50:11.876Z,2.40
2017-11-26T23:52:42.541Z,2.40
2017-11-26T23:55:13.887Z,2.40
2017-11-26T23:57:41.482Z,2.40
